sensor_id;sensor_type;location;lat;lon;timestamp;P1;durP1;ratioP1;P2;durP2;ratioP2
6185;SDS011;3126;52.738;8.316;2023-07-31T00:00:42;4.05;;;1.73;;
6185;SDS011;3126;52.738;8.316;2023-07-31T00:05:43;2.90;;;1.77;;
6185;SDS011;3126;52.738;8.316;2023-07-31T00:10:44;3.03;;;1.60;;
6185;SDS011;3126;52.738;8.316;2023-07-31T00:15:45;3.25;;;1.80;;
6185;SDS011;3126;52.738;8.316;2023-07-31T00:20:46;4.18;;;1.83;;
6185;SDS011;3126;52.738;8.316;2023-07-31T00:25:47;3.95;;;2.22;;
6185;SDS011;3126;52.738;8.316;2023-07-31T00:30:48;3.08;;;2.13;;
6185;SDS011;3126;52.738;8.316;2023-07-31T00:35:49;2.90;;;2.30;;
6185;SDS011;3126;52.738;8.316;2023-07-31T00:40:50;3.78;;;2.90;;
6185;SDS011;3126;52.738;8.316;2023-07-31T00:45:51;2.47;;;2.13;;
6185;SDS011;3126;52.738;8.316;2023-07-31T00:50:52;2.50;;;2.30;;
6185;SDS011;3126;52.738;8.316;2023-07-31T00:55:53;3.55;;;2.60;;
6185;SDS011;3126;52.738;8.316;2023-07-31T01:00:54;3.80;;;2.20;;
6185;SDS011;3126;52.738;8.316;2023-07-31T01:11:19;2.53;;;2.25;;
6185;SDS011;3126;52.738;8.316;2023-07-31T01:16:20;4.68;;;2.83;;
6185;SDS011;3126;52.738;8.316;2023-07-31T01:26:24;3.15;;;2.35;;
6185;SDS011;3126;52.738;8.316;2023-07-31T01:31:26;2.75;;;2.55;;
6185;SDS011;3126;52.738;8.316;2023-07-31T01:36:30;3.95;;;2.30;;
6185;SDS011;3126;52.738;8.316;2023-07-31T01:41:31;2.80;;;2.33;;
6185;SDS011;3126;52.738;8.316;2023-07-31T01:46:32;2.70;;;2.47;;
6185;SDS011;3126;52.738;8.316;2023-07-31T01:51:33;3.72;;;2.40;;
6185;SDS011;3126;52.738;8.316;2023-07-31T01:56:34;6.05;;;2.90;;
6185;SDS011;3126;52.738;8.316;2023-07-31T02:07:10;4.13;;;2.85;;
6185;SDS011;3126;52.738;8.316;2023-07-31T02:12:11;3.90;;;3.50;;
6185;SDS011;3126;52.738;8.316;2023-07-31T02:17:11;4.40;;;3.08;;
6185;SDS011;3126;52.738;8.316;2023-07-31T02:22:12;5.80;;;2.83;;
6185;SDS011;3126;52.738;8.316;2023-07-31T02:27:13;3.03;;;2.72;;
6185;SDS011;3126;52.738;8.316;2023-07-31T02:32:14;5.10;;;3.20;;
6185;SDS011;3126;52.738;8.316;2023-07-31T02:37:15;3.28;;;2.80;;
6185;SDS011;3126;52.738;8.316;2023-07-31T02:42:16;4.40;;;2.92;;
6185;SDS011;3126;52.738;8.316;2023-07-31T02:47:17;4.60;;;2.83;;
6185;SDS011;3126;52.738;8.316;2023-07-31T02:52:18;3.30;;;2.95;;
6185;SDS011;3126;52.738;8.316;2023-07-31T02:57:19;3.88;;;3.08;;
6185;SDS011;3126;52.738;8.316;2023-07-31T03:02:20;4.90;;;2.78;;
6185;SDS011;3126;52.738;8.316;2023-07-31T03:07:21;4.90;;;3.42;;
6185;SDS011;3126;52.738;8.316;2023-07-31T03:12:22;3.63;;;3.20;;
6185;SDS011;3126;52.738;8.316;2023-07-31T03:17:23;2.88;;;2.60;;
6185;SDS011;3126;52.738;8.316;2023-07-31T03:22:24;2.78;;;2.42;;
6185;SDS011;3126;52.738;8.316;2023-07-31T03:27:25;2.60;;;2.10;;
6185;SDS011;3126;52.738;8.316;2023-07-31T03:32:26;5.32;;;3.03;;
6185;SDS011;3126;52.738;8.316;2023-07-31T03:37:27;2.97;;;2.60;;
6185;SDS011;3126;52.738;8.316;2023-07-31T03:42:29;4.05;;;2.78;;
6185;SDS011;3126;52.738;8.316;2023-07-31T03:47:30;2.90;;;2.15;;
6185;SDS011;3126;52.738;8.316;2023-07-31T03:52:31;4.30;;;2.47;;
6185;SDS011;3126;52.738;8.316;2023-07-31T03:57:31;5.05;;;3.17;;
6185;SDS011;3126;52.738;8.316;2023-07-31T04:02:32;2.38;;;2.22;;
6185;SDS011;3126;52.738;8.316;2023-07-31T04:07:33;2.65;;;2.13;;
6185;SDS011;3126;52.738;8.316;2023-07-31T04:12:34;2.33;;;1.95;;
6185;SDS011;3126;52.738;8.316;2023-07-31T04:17:35;3.22;;;2.13;;
6185;SDS011;3126;52.738;8.316;2023-07-31T04:22:36;2.22;;;2.03;;
6185;SDS011;3126;52.738;8.316;2023-07-31T04:27:38;2.92;;;1.90;;
6185;SDS011;3126;52.738;8.316;2023-07-31T04:32:39;3.40;;;2.08;;
6185;SDS011;3126;52.738;8.316;2023-07-31T04:37:40;2.58;;;1.83;;
6185;SDS011;3126;52.738;8.316;2023-07-31T04:42:41;2.50;;;1.45;;
6185;SDS011;3126;52.738;8.316;2023-07-31T04:47:42;3.45;;;1.13;;
6185;SDS011;3126;52.738;8.316;2023-07-31T04:52:43;1.50;;;1.27;;
6185;SDS011;3126;52.738;8.316;2023-07-31T04:57:44;2.38;;;1.30;;
6185;SDS011;3126;52.738;8.316;2023-07-31T05:02:45;1.17;;;1.00;;
6185;SDS011;3126;52.738;8.316;2023-07-31T05:07:46;1.08;;;0.98;;
6185;SDS011;3126;52.738;8.316;2023-07-31T05:12:47;1.20;;;1.10;;
6185;SDS011;3126;52.738;8.316;2023-07-31T05:17:48;1.60;;;1.27;;
6185;SDS011;3126;52.738;8.316;2023-07-31T05:22:50;1.08;;;0.70;;
6185;SDS011;3126;52.738;8.316;2023-07-31T05:27:51;0.50;;;0.50;;
6185;SDS011;3126;52.738;8.316;2023-07-31T05:32:52;0.70;;;0.70;;
6185;SDS011;3126;52.738;8.316;2023-07-31T05:37:53;1.27;;;0.90;;
6185;SDS011;3126;52.738;8.316;2023-07-31T05:42:54;0.93;;;0.80;;
6185;SDS011;3126;52.738;8.316;2023-07-31T05:47:55;1.13;;;0.88;;
6185;SDS011;3126;52.738;8.316;2023-07-31T05:52:56;1.27;;;1.15;;
6185;SDS011;3126;52.738;8.316;2023-07-31T05:57:57;1.90;;;1.40;;
6185;SDS011;3126;52.738;8.316;2023-07-31T06:02:58;3.30;;;1.95;;
6185;SDS011;3126;52.738;8.316;2023-07-31T06:07:59;3.95;;;2.22;;
6185;SDS011;3126;52.738;8.316;2023-07-31T06:12:59;2.53;;;1.83;;
6185;SDS011;3126;52.738;8.316;2023-07-31T06:18:00;4.15;;;2.05;;
6185;SDS011;3126;52.738;8.316;2023-07-31T06:23:02;6.05;;;2.75;;
6185;SDS011;3126;52.738;8.316;2023-07-31T06:28:03;5.13;;;3.42;;
6185;SDS011;3126;52.738;8.316;2023-07-31T06:33:04;8.30;;;4.22;;
6185;SDS011;3126;52.738;8.316;2023-07-31T06:38:05;8.38;;;5.18;;
6185;SDS011;3126;52.738;8.316;2023-07-31T06:43:06;7.82;;;5.10;;
6185;SDS011;3126;52.738;8.316;2023-07-31T06:48:10;15.60;;;6.70;;
6185;SDS011;3126;52.738;8.316;2023-07-31T06:53:11;16.63;;;7.03;;
6185;SDS011;3126;52.738;8.316;2023-07-31T06:58:13;15.70;;;6.78;;
6185;SDS011;3126;52.738;8.316;2023-07-31T07:03:14;15.73;;;8.13;;
6185;SDS011;3126;52.738;8.316;2023-07-31T07:08:15;18.83;;;8.23;;
6185;SDS011;3126;52.738;8.316;2023-07-31T07:13:17;17.95;;;8.65;;
6185;SDS011;3126;52.738;8.316;2023-07-31T07:18:18;19.63;;;9.55;;
6185;SDS011;3126;52.738;8.316;2023-07-31T07:23:20;19.45;;;8.50;;
6185;SDS011;3126;52.738;8.316;2023-07-31T07:28:21;19.00;;;8.15;;
6185;SDS011;3126;52.738;8.316;2023-07-31T07:33:23;18.10;;;8.15;;
6185;SDS011;3126;52.738;8.316;2023-07-31T07:38:24;18.90;;;8.75;;
6185;SDS011;3126;52.738;8.316;2023-07-31T07:43:25;18.10;;;8.43;;
6185;SDS011;3126;52.738;8.316;2023-07-31T07:48:26;16.60;;;8.57;;
6185;SDS011;3126;52.738;8.316;2023-07-31T07:53:28;16.35;;;8.00;;
6185;SDS011;3126;52.738;8.316;2023-07-31T07:58:29;24.63;;;9.32;;
6185;SDS011;3126;52.738;8.316;2023-07-31T08:03:31;16.15;;;7.75;;
6185;SDS011;3126;52.738;8.316;2023-07-31T08:08:32;15.60;;;6.90;;
6185;SDS011;3126;52.738;8.316;2023-07-31T08:13:33;12.98;;;7.45;;
6185;SDS011;3126;52.738;8.316;2023-07-31T08:18:36;14.75;;;7.00;;
6185;SDS011;3126;52.738;8.316;2023-07-31T08:23:37;13.15;;;6.13;;
6185;SDS011;3126;52.738;8.316;2023-07-31T08:28:38;12.85;;;6.13;;
6185;SDS011;3126;52.738;8.316;2023-07-31T08:33:40;10.80;;;5.55;;
6185;SDS011;3126;52.738;8.316;2023-07-31T08:38:41;9.25;;;4.82;;
6185;SDS011;3126;52.738;8.316;2023-07-31T08:43:42;10.60;;;5.72;;
6185;SDS011;3126;52.738;8.316;2023-07-31T08:48:43;12.23;;;4.88;;
6185;SDS011;3126;52.738;8.316;2023-07-31T08:53:45;6.45;;;4.10;;
6185;SDS011;3126;52.738;8.316;2023-07-31T08:58:46;8.20;;;4.40;;
6185;SDS011;3126;52.738;8.316;2023-07-31T09:03:47;7.82;;;3.85;;
6185;SDS011;3126;52.738;8.316;2023-07-31T09:08:48;7.78;;;3.95;;
6185;SDS011;3126;52.738;8.316;2023-07-31T09:13:50;8.82;;;4.65;;
6185;SDS011;3126;52.738;8.316;2023-07-31T09:18:54;6.70;;;3.97;;
6185;SDS011;3126;52.738;8.316;2023-07-31T09:23:56;4.18;;;2.88;;
6185;SDS011;3126;52.738;8.316;2023-07-31T09:28:58;5.07;;;3.30;;
6185;SDS011;3126;52.738;8.316;2023-07-31T09:33:59;5.20;;;3.10;;
6185;SDS011;3126;52.738;8.316;2023-07-31T09:39:03;3.03;;;2.83;;
6185;SDS011;3126;52.738;8.316;2023-07-31T09:44:04;3.70;;;2.50;;
6185;SDS011;3126;52.738;8.316;2023-07-31T09:49:09;3.15;;;1.90;;
6185;SDS011;3126;52.738;8.316;2023-07-31T09:54:11;4.00;;;1.48;;
6185;SDS011;3126;52.738;8.316;2023-07-31T09:59:13;2.08;;;1.50;;
6185;SDS011;3126;52.738;8.316;2023-07-31T10:04:14;4.07;;;1.58;;
6185;SDS011;3126;52.738;8.316;2023-07-31T10:09:16;1.60;;;1.50;;
6185;SDS011;3126;52.738;8.316;2023-07-31T10:14:20;2.40;;;1.50;;
6185;SDS011;3126;52.738;8.316;2023-07-31T10:19:21;1.90;;;1.48;;
6185;SDS011;3126;52.738;8.316;2023-07-31T10:24:22;2.20;;;1.75;;
6185;SDS011;3126;52.738;8.316;2023-07-31T10:29:24;1.85;;;1.40;;
6185;SDS011;3126;52.738;8.316;2023-07-31T10:34:26;1.60;;;1.20;;
6185;SDS011;3126;52.738;8.316;2023-07-31T10:39:34;1.80;;;1.42;;
6185;SDS011;3126;52.738;8.316;2023-07-31T10:44:48;1.70;;;1.25;;
6185;SDS011;3126;52.738;8.316;2023-07-31T10:49:49;1.40;;;1.30;;
6185;SDS011;3126;52.738;8.316;2023-07-31T10:54:50;0.80;;;0.80;;
6185;SDS011;3126;52.738;8.316;2023-07-31T11:00:21;1.17;;;0.88;;
6185;SDS011;3126;52.738;8.316;2023-07-31T11:05:23;0.80;;;0.80;;
6185;SDS011;3126;52.738;8.316;2023-07-31T11:10:42;1.50;;;1.10;;
6185;SDS011;3126;52.738;8.316;2023-07-31T11:15:43;1.42;;;1.15;;
6185;SDS011;3126;52.738;8.316;2023-07-31T11:20:44;1.30;;;0.90;;
6185;SDS011;3126;52.738;8.316;2023-07-31T11:25:45;1.40;;;0.93;;
6185;SDS011;3126;52.738;8.316;2023-07-31T11:30:47;0.95;;;0.95;;
6185;SDS011;3126;52.738;8.316;2023-07-31T11:35:48;1.23;;;1.13;;
6185;SDS011;3126;52.738;8.316;2023-07-31T11:40:49;1.30;;;1.20;;
6185;SDS011;3126;52.738;8.316;2023-07-31T11:45:51;1.40;;;1.30;;
6185;SDS011;3126;52.738;8.316;2023-07-31T11:50:52;1.63;;;1.52;;
6185;SDS011;3126;52.738;8.316;2023-07-31T11:55:53;2.05;;;1.15;;
6185;SDS011;3126;52.738;8.316;2023-07-31T12:00:54;2.35;;;1.23;;
6185;SDS011;3126;52.738;8.316;2023-07-31T12:05:57;1.52;;;1.30;;
6185;SDS011;3126;52.738;8.316;2023-07-31T12:11:02;1.17;;;1.08;;
6185;SDS011;3126;52.738;8.316;2023-07-31T12:16:04;1.55;;;1.45;;
6185;SDS011;3126;52.738;8.316;2023-07-31T12:21:06;1.95;;;1.52;;
6185;SDS011;3126;52.738;8.316;2023-07-31T12:31:21;2.58;;;2.38;;
6185;SDS011;3126;52.738;8.316;2023-07-31T12:36:23;2.35;;;2.10;;
6185;SDS011;3126;52.738;8.316;2023-07-31T12:41:24;2.30;;;2.10;;
6185;SDS011;3126;52.738;8.316;2023-07-31T12:46:25;3.00;;;2.50;;
6185;SDS011;3126;52.738;8.316;2023-07-31T12:51:26;3.85;;;2.63;;
6185;SDS011;3126;52.738;8.316;2023-07-31T12:56:28;2.97;;;2.67;;
6185;SDS011;3126;52.738;8.316;2023-07-31T13:01:29;3.42;;;2.88;;
6185;SDS011;3126;52.738;8.316;2023-07-31T13:06:30;3.85;;;3.20;;
6185;SDS011;3126;52.738;8.316;2023-07-31T13:11:31;3.80;;;3.40;;
6185;SDS011;3126;52.738;8.316;2023-07-31T13:16:32;4.10;;;3.70;;
6185;SDS011;3126;52.738;8.316;2023-07-31T13:21:33;4.25;;;3.85;;
6185;SDS011;3126;52.738;8.316;2023-07-31T13:26:36;4.22;;;3.58;;
6185;SDS011;3126;52.738;8.316;2023-07-31T13:31:37;3.75;;;3.45;;
6185;SDS011;3126;52.738;8.316;2023-07-31T13:36:38;4.90;;;4.18;;
6185;SDS011;3126;52.738;8.316;2023-07-31T13:41:39;5.10;;;4.03;;
6185;SDS011;3126;52.738;8.316;2023-07-31T13:46:40;6.05;;;4.60;;
6185;SDS011;3126;52.738;8.316;2023-07-31T13:51:41;5.85;;;4.97;;
6185;SDS011;3126;52.738;8.316;2023-07-31T13:56:42;6.60;;;4.82;;
6185;SDS011;3126;52.738;8.316;2023-07-31T14:01:43;5.80;;;5.30;;
6185;SDS011;3126;52.738;8.316;2023-07-31T14:06:44;5.95;;;4.78;;
6185;SDS011;3126;52.738;8.316;2023-07-31T14:11:47;6.03;;;4.78;;
6185;SDS011;3126;52.738;8.316;2023-07-31T14:16:48;5.78;;;4.63;;
6185;SDS011;3126;52.738;8.316;2023-07-31T14:21:49;6.38;;;4.70;;
6185;SDS011;3126;52.738;8.316;2023-07-31T14:26:50;4.47;;;4.07;;
6185;SDS011;3126;52.738;8.316;2023-07-31T14:31:51;4.22;;;3.83;;
6185;SDS011;3126;52.738;8.316;2023-07-31T14:36:52;4.75;;;4.13;;
6185;SDS011;3126;52.738;8.316;2023-07-31T14:41:53;5.80;;;3.53;;
6185;SDS011;3126;52.738;8.316;2023-07-31T14:46:54;4.53;;;3.75;;
6185;SDS011;3126;52.738;8.316;2023-07-31T14:51:55;4.10;;;3.70;;
6185;SDS011;3126;52.738;8.316;2023-07-31T14:56:57;4.05;;;3.45;;
6185;SDS011;3126;52.738;8.316;2023-07-31T15:01:58;6.38;;;3.83;;
6185;SDS011;3126;52.738;8.316;2023-07-31T15:06:59;5.07;;;4.05;;
6185;SDS011;3126;52.738;8.316;2023-07-31T15:12:00;4.25;;;3.85;;
6185;SDS011;3126;52.738;8.316;2023-07-31T15:17:01;4.28;;;3.88;;
6185;SDS011;3126;52.738;8.316;2023-07-31T15:22:05;5.18;;;3.95;;
6185;SDS011;3126;52.738;8.316;2023-07-31T15:27:06;4.45;;;4.05;;
6185;SDS011;3126;52.738;8.316;2023-07-31T15:32:08;7.25;;;4.78;;
6185;SDS011;3126;52.738;8.316;2023-07-31T15:37:09;6.45;;;5.25;;
6185;SDS011;3126;52.738;8.316;2023-07-31T15:42:11;7.47;;;5.28;;
6185;SDS011;3126;52.738;8.316;2023-07-31T15:47:12;6.78;;;5.05;;
6185;SDS011;3126;52.738;8.316;2023-07-31T15:52:12;6.32;;;4.88;;
6185;SDS011;3126;52.738;8.316;2023-07-31T15:57:14;5.43;;;4.93;;
6185;SDS011;3126;52.738;8.316;2023-07-31T16:02:14;5.50;;;4.68;;
6185;SDS011;3126;52.738;8.316;2023-07-31T16:07:15;6.78;;;5.45;;
6185;SDS011;3126;52.738;8.316;2023-07-31T16:12:18;6.90;;;4.20;;
6185;SDS011;3126;52.738;8.316;2023-07-31T16:17:19;4.88;;;4.35;;
6185;SDS011;3126;52.738;8.316;2023-07-31T16:22:20;5.80;;;4.25;;
6185;SDS011;3126;52.738;8.316;2023-07-31T16:27:20;4.53;;;4.13;;
6185;SDS011;3126;52.738;8.316;2023-07-31T16:32:23;5.32;;;3.83;;
6185;SDS011;3126;52.738;8.316;2023-07-31T16:37:24;4.85;;;4.35;;
6185;SDS011;3126;52.738;8.316;2023-07-31T16:42:25;6.05;;;4.10;;
6185;SDS011;3126;52.738;8.316;2023-07-31T16:47:26;5.75;;;4.60;;
6185;SDS011;3126;52.738;8.316;2023-07-31T16:52:27;5.70;;;4.60;;
6185;SDS011;3126;52.738;8.316;2023-07-31T16:57:30;6.63;;;4.13;;
6185;SDS011;3126;52.738;8.316;2023-07-31T17:02:30;5.72;;;4.38;;
6185;SDS011;3126;52.738;8.316;2023-07-31T17:07:31;3.00;;;2.60;;
6185;SDS011;3126;52.738;8.316;2023-07-31T17:12:32;3.05;;;2.58;;
6185;SDS011;3126;52.738;8.316;2023-07-31T17:17:33;2.67;;;2.47;;
6185;SDS011;3126;52.738;8.316;2023-07-31T17:22:35;2.50;;;2.25;;
6185;SDS011;3126;52.738;8.316;2023-07-31T17:27:36;2.83;;;2.63;;
6185;SDS011;3126;52.738;8.316;2023-07-31T17:32:37;2.90;;;2.20;;
6185;SDS011;3126;52.738;8.316;2023-07-31T17:37:38;3.22;;;2.80;;
6185;SDS011;3126;52.738;8.316;2023-07-31T17:42:39;4.15;;;3.10;;
6185;SDS011;3126;52.738;8.316;2023-07-31T17:47:40;4.30;;;3.90;;
6185;SDS011;3126;52.738;8.316;2023-07-31T17:52:41;5.85;;;3.75;;
6185;SDS011;3126;52.738;8.316;2023-07-31T17:57:42;4.75;;;4.20;;
6185;SDS011;3126;52.738;8.316;2023-07-31T18:02:43;4.90;;;4.35;;
6185;SDS011;3126;52.738;8.316;2023-07-31T18:07:44;5.72;;;5.03;;
6185;SDS011;3126;52.738;8.316;2023-07-31T18:12:45;8.50;;;5.40;;
6185;SDS011;3126;52.738;8.316;2023-07-31T18:17:46;8.05;;;5.35;;
6185;SDS011;3126;52.738;8.316;2023-07-31T18:22:47;6.45;;;5.05;;
6185;SDS011;3126;52.738;8.316;2023-07-31T18:27:48;5.95;;;5.43;;
6185;SDS011;3126;52.738;8.316;2023-07-31T18:32:49;6.20;;;5.05;;
6185;SDS011;3126;52.738;8.316;2023-07-31T18:37:50;6.78;;;5.35;;
6185;SDS011;3126;52.738;8.316;2023-07-31T18:42:51;7.10;;;5.28;;
6185;SDS011;3126;52.738;8.316;2023-07-31T18:47:51;7.18;;;4.55;;
6185;SDS011;3126;52.738;8.316;2023-07-31T18:52:52;7.47;;;4.93;;
6185;SDS011;3126;52.738;8.316;2023-07-31T18:57:53;7.53;;;4.40;;
6185;SDS011;3126;52.738;8.316;2023-07-31T19:02:54;9.00;;;5.72;;
6185;SDS011;3126;52.738;8.316;2023-07-31T19:07:55;7.72;;;4.47;;
6185;SDS011;3126;52.738;8.316;2023-07-31T19:12:59;5.97;;;4.95;;
6185;SDS011;3126;52.738;8.316;2023-07-31T19:18:00;6.40;;;5.30;;
6185;SDS011;3126;52.738;8.316;2023-07-31T19:23:01;6.40;;;5.75;;
6185;SDS011;3126;52.738;8.316;2023-07-31T19:28:02;6.80;;;5.88;;
6185;SDS011;3126;52.738;8.316;2023-07-31T19:33:03;6.18;;;5.40;;
6185;SDS011;3126;52.738;8.316;2023-07-31T19:38:04;6.22;;;5.45;;
6185;SDS011;3126;52.738;8.316;2023-07-31T19:43:05;7.10;;;6.15;;
6185;SDS011;3126;52.738;8.316;2023-07-31T19:48:06;9.05;;;6.43;;
6185;SDS011;3126;52.738;8.316;2023-07-31T19:53:07;10.25;;;6.80;;
6185;SDS011;3126;52.738;8.316;2023-07-31T19:58:08;6.25;;;5.65;;
6185;SDS011;3126;52.738;8.316;2023-07-31T20:03:11;7.63;;;6.68;;
6185;SDS011;3126;52.738;8.316;2023-07-31T20:08:12;8.30;;;6.10;;
6185;SDS011;3126;52.738;8.316;2023-07-31T20:13:14;8.00;;;6.10;;
6185;SDS011;3126;52.738;8.316;2023-07-31T20:18:15;7.55;;;6.65;;
6185;SDS011;3126;52.738;8.316;2023-07-31T20:23:16;7.90;;;6.35;;
6185;SDS011;3126;52.738;8.316;2023-07-31T20:28:17;7.05;;;5.55;;
6185;SDS011;3126;52.738;8.316;2023-07-31T20:33:18;7.53;;;6.20;;
6185;SDS011;3126;52.738;8.316;2023-07-31T20:38:19;8.63;;;6.80;;
6185;SDS011;3126;52.738;8.316;2023-07-31T20:43:20;9.13;;;6.25;;
6185;SDS011;3126;52.738;8.316;2023-07-31T20:48:21;7.05;;;5.80;;
6185;SDS011;3126;52.738;8.316;2023-07-31T20:53:22;7.03;;;5.70;;
6185;SDS011;3126;52.738;8.316;2023-07-31T20:58:23;6.65;;;5.80;;
6185;SDS011;3126;52.738;8.316;2023-07-31T21:03:24;6.28;;;5.68;;
6185;SDS011;3126;52.738;8.316;2023-07-31T21:08:25;6.07;;;5.47;;
6185;SDS011;3126;52.738;8.316;2023-07-31T21:13:26;6.95;;;6.25;;
6185;SDS011;3126;52.738;8.316;2023-07-31T21:18:27;5.93;;;5.32;;
6185;SDS011;3126;52.738;8.316;2023-07-31T21:23:28;7.75;;;5.93;;
6185;SDS011;3126;52.738;8.316;2023-07-31T21:28:29;6.90;;;6.30;;
6185;SDS011;3126;52.738;8.316;2023-07-31T21:33:30;5.53;;;5.03;;
6185;SDS011;3126;52.738;8.316;2023-07-31T21:38:31;5.50;;;5.00;;
6185;SDS011;3126;52.738;8.316;2023-07-31T21:43:32;5.05;;;4.55;;
6185;SDS011;3126;52.738;8.316;2023-07-31T21:48:33;5.05;;;4.55;;
6185;SDS011;3126;52.738;8.316;2023-07-31T21:53:34;4.15;;;3.80;;
6185;SDS011;3126;52.738;8.316;2023-07-31T21:58:35;4.15;;;3.75;;
6185;SDS011;3126;52.738;8.316;2023-07-31T22:03:36;4.82;;;3.75;;
6185;SDS011;3126;52.738;8.316;2023-07-31T22:08:37;4.10;;;3.70;;
6185;SDS011;3126;52.738;8.316;2023-07-31T22:13:40;3.70;;;3.30;;
6185;SDS011;3126;52.738;8.316;2023-07-31T22:18:41;4.25;;;3.38;;
6185;SDS011;3126;52.738;8.316;2023-07-31T22:23:42;3.40;;;3.10;;
6185;SDS011;3126;52.738;8.316;2023-07-31T22:28:43;3.88;;;3.30;;
6185;SDS011;3126;52.738;8.316;2023-07-31T22:33:43;3.63;;;3.33;;
6185;SDS011;3126;52.738;8.316;2023-07-31T22:38:44;4.25;;;3.47;;
6185;SDS011;3126;52.738;8.316;2023-07-31T22:43:45;5.85;;;3.83;;
6185;SDS011;3126;52.738;8.316;2023-07-31T22:48:46;4.20;;;3.63;;
6185;SDS011;3126;52.738;8.316;2023-07-31T22:53:47;3.72;;;3.42;;
6185;SDS011;3126;52.738;8.316;2023-07-31T22:58:48;4.82;;;3.45;;
6185;SDS011;3126;52.738;8.316;2023-07-31T23:03:49;5.63;;;3.33;;
6185;SDS011;3126;52.738;8.316;2023-07-31T23:08:50;3.47;;;3.17;;
6185;SDS011;3126;52.738;8.316;2023-07-31T23:13:51;4.60;;;3.38;;
6185;SDS011;3126;52.738;8.316;2023-07-31T23:18:52;5.28;;;3.90;;
6185;SDS011;3126;52.738;8.316;2023-07-31T23:23:53;4.80;;;4.28;;
6185;SDS011;3126;52.738;8.316;2023-07-31T23:28:54;5.70;;;4.32;;
6185;SDS011;3126;52.738;8.316;2023-07-31T23:33:56;5.60;;;5.10;;
6185;SDS011;3126;52.738;8.316;2023-07-31T23:38:57;6.40;;;4.82;;
6185;SDS011;3126;52.738;8.316;2023-07-31T23:43:58;7.03;;;4.60;;
6185;SDS011;3126;52.738;8.316;2023-07-31T23:48:59;6.60;;;4.65;;
6185;SDS011;3126;52.738;8.316;2023-07-31T23:54:00;5.80;;;4.88;;
6185;SDS011;3126;52.738;8.316;2023-07-31T23:59:02;8.95;;;4.97;;
